createdAt,value
2023-10-08T00:10:28.678Z,5.86
2023-10-08T00:15:48.015Z,1.76
2023-10-08T00:26:26.968Z,9.96
2023-10-08T00:37:05.881Z,5.76
2023-10-08T00:42:25.251Z,3.4
2023-10-08T00:53:03.913Z,3.48
2023-10-08T01:09:01.334Z,9.32
2023-10-08T01:24:58.574Z,3.32
2023-10-08T01:35:37.391Z,4.04
2023-10-08T01:40:56.608Z,6.2
2023-10-08T01:51:34.955Z,6.98
2023-10-08T02:07:33.188Z,6.5
2023-10-08T02:23:31.277Z,5.2
2023-10-08T02:34:09.062Z,5.6
2023-10-08T02:50:07.001Z,9.1
2023-10-08T03:06:05.131Z,11.56
2023-10-08T03:16:42.913Z,5.48
2023-10-08T03:22:01.915Z,6.72
2023-10-08T03:32:40.831Z,3.86
2023-10-08T03:48:39.239Z,3.38
2023-10-08T04:04:37.411Z,1.02
2023-10-08T04:15:15.325Z,4.6
2023-10-08T04:31:12.748Z,1.68
2023-10-08T04:41:51.453Z,0.84
2023-10-08T04:47:10.522Z,1.32
2023-10-08T04:57:49.113Z,3
2023-10-08T05:13:46.419Z,0.5
2023-10-08T05:29:43.648Z,0.66
2023-10-08T05:40:22.551Z,2.8
2023-10-08T05:45:42.369Z,0.58
2023-10-08T05:51:00.742Z,0.76
2023-10-08T06:07:00.130Z,2.3
2023-10-08T06:22:57.140Z,1.14
2023-10-08T06:33:35.325Z,1.16
2023-10-08T06:49:32.291Z,3.36
2023-10-08T07:05:29.900Z,1.34
2023-10-08T07:16:08.776Z,1.98
2023-10-08T07:32:06.427Z,2.76
2023-10-08T07:48:04.653Z,3.88
2023-10-08T07:58:41.748Z,1.9
2023-10-08T08:04:01.321Z,2.2
2023-10-08T08:14:40.595Z,2.02
2023-10-08T08:30:38.366Z,2.54
2023-10-08T08:46:35.978Z,3.86
2023-10-08T08:57:13.915Z,4.84
2023-10-08T09:02:33.558Z,4.28
2023-10-08T09:13:12.422Z,1.6
2023-10-08T09:29:11.001Z,4.52
2023-10-08T09:39:50.002Z,4.38
2023-10-08T09:45:09.128Z,2.66
2023-10-08T09:55:47.663Z,2.56
2023-10-08T10:11:45.012Z,2.9
2023-10-08T10:27:42.006Z,3.8
2023-10-08T10:38:19.877Z,2.6
2023-10-08T10:54:18.139Z,5.12
2023-10-08T11:10:15.850Z,3.76
2023-10-08T11:20:53.315Z,3.5
2023-10-08T11:26:11.970Z,2.86
2023-10-08T11:36:51.092Z,5.86
2023-10-08T11:52:48.670Z,1.34
2023-10-08T12:03:26.433Z,3.6
2023-10-08T12:08:45.842Z,1.72
2023-10-08T12:19:24.194Z,2.74
2023-10-08T12:46:00.697Z,2.8
2023-10-08T12:56:38.234Z,3
2023-10-08T13:12:36.032Z,3.22
2023-10-08T13:28:32.999Z,3.54
2023-10-08T13:39:12.002Z,1.4
2023-10-08T13:44:31.529Z,0.94
2023-10-08T13:55:09.513Z,0.6
2023-10-08T14:00:28.869Z,0.98
2023-10-08T14:11:06.582Z,1.8
2023-10-08T14:27:04.884Z,0.58
2023-10-08T14:37:42.430Z,0.86
2023-10-08T14:53:41.226Z,0.9
2023-10-08T14:59:24.544Z,1.32
2023-10-08T15:10:03.064Z,1.12
2023-10-08T15:26:00.617Z,1.74
2023-10-08T15:41:57.310Z,1.3
2023-10-08T15:52:35.124Z,1.3
2023-10-08T16:08:32.743Z,1.24
2023-10-08T16:24:30.506Z,0.74
2023-10-08T16:35:09.160Z,1.8
2023-10-08T16:40:28.417Z,1.5
2023-10-08T16:51:06.251Z,0
2023-10-08T17:07:03.549Z,0.72
2023-10-08T17:23:01.506Z,0
2023-10-08T17:33:39.875Z,0
2023-10-08T17:38:58.932Z,0.26
2023-10-08T17:49:38.220Z,0.88
2023-10-08T18:05:35.783Z,0.42
2023-10-08T18:16:14.161Z,0
2023-10-08T18:21:33.335Z,0.42
2023-10-08T18:32:11.235Z,1.16
2023-10-08T18:37:30.639Z,1.32
2023-10-08T18:48:09.918Z,0.72
2023-10-08T18:58:47.914Z,0.76
2023-10-08T19:04:05.867Z,1
2023-10-08T19:14:44.584Z,1.04
2023-10-08T19:25:22.718Z,0.64
2023-10-08T19:36:01.602Z,0
2023-10-08T19:41:21.125Z,0.34
2023-10-08T19:52:00.146Z,0
2023-10-08T19:57:19.739Z,0
2023-10-08T20:07:57.853Z,0.72
2023-10-08T20:23:55.443Z,1
2023-10-08T20:39:52.275Z,0.72
2023-10-08T20:50:32.988Z,0.52
2023-10-08T21:06:28.057Z,1.1
2023-10-08T21:17:05.912Z,0.4
2023-10-08T21:22:25.151Z,0.48
2023-10-08T21:33:03.039Z,0
2023-10-08T21:48:59.871Z,0
2023-10-08T21:59:38.386Z,0
2023-10-08T22:04:57.406Z,0.66
2023-10-08T22:15:35.576Z,0
2023-10-08T22:31:33.554Z,0.42
2023-10-08T22:47:30.375Z,0.64
2023-10-08T22:58:08.787Z,1.46
2023-10-08T23:03:28.182Z,0.44
2023-10-08T23:14:05.675Z,0
2023-10-08T23:30:03.975Z,0.42
2023-10-08T23:46:02.277Z,0
2023-10-08T23:56:40.543Z,0
